createdAt,value
2018-05-31T00:02:30.515Z,12.00
2018-05-31T00:05:01.970Z,12.00
2018-05-31T00:07:32.590Z,9.33
2018-05-31T00:10:04.830Z,12.00
2018-05-31T00:12:36.002Z,9.00
2018-05-31T00:15:07.633Z,7.67
2018-05-31T00:17:38.818Z,9.00
2018-05-31T00:20:10.543Z,10.33
2018-05-31T00:22:42.091Z,9.00
2018-05-31T00:25:14.267Z,8.33
2018-05-31T00:27:47.571Z,10.33
2018-05-31T00:30:18.956Z,8.00
2018-05-31T00:32:50.671Z,8.00
2018-05-31T00:35:22.051Z,10.33
2018-05-31T00:37:53.402Z,8.00
2018-05-31T00:40:25.997Z,12.00
2018-05-31T00:42:58.121Z,11.00
2018-05-31T00:45:29.480Z,10.33
2018-05-31T00:48:04.168Z,12.00
2018-05-31T00:50:36.262Z,10.33
2018-05-31T00:53:07.411Z,8.00
2018-05-31T00:55:47.765Z,8.00
2018-05-31T00:58:20.054Z,7.40
2018-05-31T01:00:53.194Z,7.25
2018-05-31T01:03:24.319Z,8.00
2018-05-31T01:05:56.198Z,7.00
2018-05-31T01:08:27.653Z,8.00
2018-05-31T01:10:58.945Z,8.33
2018-05-31T01:13:30.249Z,8.00
2018-05-31T01:16:01.637Z,8.00
2018-05-31T01:18:33.178Z,8.00
2018-05-31T01:21:04.555Z,8.00
2018-05-31T01:23:36.212Z,7.33
2018-05-31T01:26:07.620Z,7.67
2018-05-31T01:28:39.031Z,8.00
2018-05-31T01:31:11.385Z,8.60
2018-05-31T01:33:42.734Z,8.00
2018-05-31T01:36:14.468Z,7.33
2018-05-31T01:38:45.645Z,7.00
2018-05-31T01:41:17.022Z,7.00
2018-05-31T01:43:49.392Z,7.67
2018-05-31T01:46:21.474Z,7.50
2018-05-31T01:48:52.804Z,7.00
2018-05-31T01:51:24.114Z,8.00
2018-05-31T01:53:56.309Z,7.00
2018-05-31T01:56:27.621Z,8.00
2018-05-31T01:58:58.922Z,8.00
2018-05-31T02:05:11.710Z,10.00
2018-05-31T02:07:43.989Z,10.33
2018-05-31T02:10:15.463Z,9.00
2018-05-31T02:12:46.857Z,10.00
2018-05-31T02:15:20.101Z,10.33
2018-05-31T02:17:52.226Z,12.00
2018-05-31T02:20:22.767Z,11.00
2018-05-31T02:22:53.933Z,11.00
2018-05-31T02:25:27.503Z,12.00
2018-05-31T02:27:59.785Z,12.33
2018-05-31T02:30:30.264Z,12.00
2018-05-31T02:33:02.531Z,11.33
2018-05-31T02:35:33.038Z,12.00
2018-05-31T02:38:03.552Z,11.67
2018-05-31T02:40:35.594Z,12.33
2018-05-31T02:43:06.128Z,14.00
2018-05-31T02:45:38.539Z,14.33
2018-05-31T02:48:09.032Z,11.67
2018-05-31T02:50:39.613Z,12.00
2018-05-31T02:53:10.110Z,13.67
2018-05-31T02:55:40.981Z,12.67
2018-05-31T02:58:13.313Z,12.67
2018-05-31T03:00:45.621Z,12.00
2018-05-31T03:03:15.894Z,11.67
2018-05-31T03:05:46.422Z,12.00
2018-05-31T03:08:18.699Z,11.33
2018-05-31T03:10:49.291Z,11.00
2018-05-31T03:13:20.867Z,11.33
2018-05-31T03:15:52.246Z,9.67
2018-05-31T03:18:24.501Z,11.00
2018-05-31T03:20:56.793Z,10.00
2018-05-31T03:23:28.343Z,9.33
2018-05-31T03:25:59.623Z,7.00
2018-05-31T03:28:31.061Z,10.67
2018-05-31T03:31:02.491Z,10.00
2018-05-31T03:33:35.513Z,7.33
2018-05-31T03:36:06.797Z,8.33
2018-05-31T03:38:37.982Z,9.33
2018-05-31T03:41:10.018Z,7.00
2018-05-31T03:43:41.419Z,7.67
2018-05-31T03:46:13.036Z,9.33
2018-05-31T03:48:44.393Z,9.33
2018-05-31T03:51:15.827Z,9.00
2018-05-31T03:53:47.157Z,8.00
2018-05-31T03:56:18.615Z,9.00
2018-05-31T03:58:51.294Z,9.00
2018-05-31T04:14:30.921Z,10.29
2018-05-31T04:17:02.281Z,10.00
2018-05-31T04:19:34.011Z,11.00
2018-05-31T04:22:04.566Z,10.00
2018-05-31T04:24:37.361Z,12.33
2018-05-31T04:27:10.023Z,10.67
2018-05-31T04:29:41.459Z,10.67
2018-05-31T04:32:13.888Z,13.33
2018-05-31T04:34:44.394Z,12.00
2018-05-31T04:37:14.892Z,13.33
2018-05-31T04:39:46.742Z,12.33
2018-05-31T04:42:18.813Z,13.33
2018-05-31T04:44:51.615Z,14.00
2018-05-31T04:47:22.142Z,13.33
2018-05-31T04:49:54.263Z,13.33
2018-05-31T04:52:27.148Z,14.00
2018-05-31T04:54:57.688Z,12.33
2018-05-31T04:57:28.153Z,13.00
2018-05-31T04:59:59.105Z,13.00
2018-05-31T05:02:31.583Z,11.00
2018-05-31T05:05:02.259Z,11.67
2018-05-31T05:07:33.146Z,12.67
2018-05-31T05:10:03.708Z,11.33
2018-05-31T05:12:34.767Z,12.67
2018-05-31T05:15:06.341Z,12.67
2018-05-31T05:17:38.682Z,10.33
2018-05-31T05:20:11.117Z,12.00
2018-05-31T05:22:42.566Z,12.00
2018-05-31T05:25:14.490Z,10.67
2018-05-31T05:27:44.990Z,15.00
2018-05-31T05:30:16.495Z,12.00
2018-05-31T05:32:46.962Z,13.67
2018-05-31T05:35:19.307Z,11.00
2018-05-31T05:37:52.002Z,11.00
2018-05-31T05:40:23.438Z,11.00
2018-05-31T05:42:54.970Z,11.33
2018-05-31T05:45:27.215Z,12.00
2018-05-31T05:47:58.665Z,10.67
2018-05-31T05:50:31.348Z,11.67
2018-05-31T05:53:01.962Z,11.00
2018-05-31T05:55:33.320Z,11.00
2018-05-31T05:58:05.024Z,11.00
2018-05-31T06:00:36.408Z,11.33
2018-05-31T06:03:06.982Z,11.00
2018-05-31T06:05:40.722Z,9.00
2018-05-31T06:08:10.987Z,12.67
2018-05-31T06:10:41.551Z,12.67
2018-05-31T06:13:12.147Z,11.00
2018-05-31T06:15:44.528Z,9.00
2018-05-31T06:18:15.981Z,11.00
2018-05-31T06:20:47.510Z,10.33
2018-05-31T06:23:18.992Z,10.00
2018-05-31T06:25:50.580Z,8.67
2018-05-31T06:28:22.022Z,10.33
2018-05-31T06:30:53.662Z,10.00
2018-05-31T06:33:25.062Z,9.67
2018-05-31T06:35:56.406Z,9.00
2018-05-31T06:38:28.059Z,8.33
2018-05-31T06:40:59.361Z,9.33
2018-05-31T06:43:30.480Z,9.67
2018-05-31T06:46:01.629Z,9.00
2018-05-31T06:48:33.946Z,7.00
2018-05-31T06:51:08.731Z,5.00
2018-05-31T06:53:40.970Z,5.60
2018-05-31T06:56:13.146Z,5.80
2018-05-31T06:58:46.073Z,4.83
2018-05-31T07:01:19.346Z,5.17
2018-05-31T07:03:53.297Z,5.86
2018-05-31T07:06:24.546Z,6.00
2018-05-31T07:08:58.562Z,6.00
2018-05-31T07:11:30.834Z,8.00
2018-05-31T07:14:03.217Z,6.80
2018-05-31T07:16:35.215Z,7.67
2018-05-31T07:19:07.354Z,7.00
2018-05-31T07:21:38.706Z,9.33
2018-05-31T07:24:10.070Z,10.33
2018-05-31T07:26:41.409Z,9.00
2018-05-31T07:29:13.341Z,8.33
2018-05-31T07:31:44.762Z,10.00
2018-05-31T07:34:16.157Z,10.00
2018-05-31T07:36:47.544Z,9.00
2018-05-31T07:39:18.931Z,10.00
2018-05-31T07:41:49.471Z,10.00
2018-05-31T07:44:21.178Z,9.33
2018-05-31T07:46:52.477Z,9.33
2018-05-31T07:49:23.801Z,9.00
2018-05-31T07:51:55.176Z,7.67
2018-05-31T07:54:28.340Z,9.00
2018-05-31T07:57:00.336Z,9.67
2018-05-31T07:59:31.890Z,9.00
2018-05-31T08:02:04.170Z,9.00
2018-05-31T08:04:36.421Z,10.00
2018-05-31T08:07:08.778Z,9.40
2018-05-31T08:09:40.366Z,9.33
2018-05-31T08:12:11.485Z,8.33
2018-05-31T08:14:42.679Z,9.00
2018-05-31T08:17:14.107Z,11.00
2018-05-31T08:19:45.538Z,9.00
2018-05-31T08:22:17.760Z,10.25
2018-05-31T08:24:49.154Z,10.00
2018-05-31T08:27:19.709Z,11.33
2018-05-31T08:29:51.131Z,11.00
2018-05-31T08:32:21.631Z,10.33
2018-05-31T08:34:53.362Z,10.00
2018-05-31T08:37:24.750Z,10.67
2018-05-31T08:39:56.192Z,12.00
2018-05-31T08:42:27.527Z,10.00
2018-05-31T08:44:58.925Z,10.00
2018-05-31T08:47:31.213Z,12.00
2018-05-31T08:50:02.594Z,10.33
2018-05-31T08:52:34.644Z,12.00
2018-05-31T08:55:06.990Z,12.00
2018-05-31T08:57:39.595Z,12.67
2018-05-31T09:00:10.107Z,11.33
2018-05-31T09:02:40.676Z,11.00
2018-05-31T09:05:12.447Z,12.00
2018-05-31T09:07:42.943Z,11.67
2018-05-31T09:10:13.591Z,12.33
2018-05-31T09:12:46.289Z,12.67
2018-05-31T09:15:18.684Z,13.00
2018-05-31T09:17:50.193Z,11.67
2018-05-31T09:20:21.966Z,12.33
2018-05-31T09:22:52.509Z,11.00
2018-05-31T09:25:23.084Z,12.00
2018-05-31T09:27:53.818Z,13.00
2018-05-31T09:30:24.317Z,15.00
2018-05-31T09:32:54.793Z,13.33
2018-05-31T09:35:25.639Z,16.00
2018-05-31T09:37:56.165Z,14.00
2018-05-31T09:40:28.651Z,13.67
2018-05-31T09:42:59.403Z,15.00
2018-05-31T09:45:30.052Z,15.00
2018-05-31T09:48:01.930Z,16.33
2018-05-31T09:50:32.400Z,17.67
2018-05-31T09:53:02.927Z,20.00
2018-05-31T09:55:34.322Z,15.33
2018-05-31T09:58:06.727Z,14.00
2018-05-31T10:00:38.358Z,14.33
2018-05-31T10:03:09.295Z,15.33
2018-05-31T10:05:43.066Z,15.00
2018-05-31T10:08:14.006Z,17.00
2018-05-31T10:10:45.264Z,14.00
2018-05-31T10:13:18.249Z,16.00
2018-05-31T10:15:48.825Z,15.33
2018-05-31T10:18:21.466Z,16.00
2018-05-31T10:20:51.986Z,15.33
2018-05-31T10:23:22.821Z,16.00
2018-05-31T10:25:53.355Z,17.00
2018-05-31T10:28:23.920Z,13.67
2018-05-31T10:30:54.529Z,15.33
2018-05-31T10:33:25.370Z,13.33
2018-05-31T10:35:55.878Z,13.33
2018-05-31T10:38:26.390Z,15.33
2018-05-31T10:40:56.854Z,13.67
2018-05-31T10:43:29.142Z,15.00
2018-05-31T10:45:59.741Z,15.67
2018-05-31T10:48:31.086Z,13.33
2018-05-31T10:51:01.678Z,14.00
2018-05-31T10:53:34.669Z,16.00
2018-05-31T10:56:05.006Z,15.67
2018-05-31T10:58:36.578Z,14.67
2018-05-31T11:01:08.010Z,15.67
2018-05-31T11:03:40.330Z,14.33
2018-05-31T11:06:10.925Z,15.33
2018-05-31T11:08:41.750Z,15.00
2018-05-31T11:11:13.462Z,14.67
2018-05-31T11:13:44.178Z,15.33
2018-05-31T11:16:14.692Z,14.67
2018-05-31T11:18:45.151Z,16.33
2018-05-31T11:21:17.626Z,15.67
2018-05-31T11:23:48.085Z,12.33
2018-05-31T11:26:18.979Z,15.00
2018-05-31T11:28:49.428Z,15.33
2018-05-31T11:31:20.349Z,15.00
2018-05-31T11:33:52.095Z,16.33
2018-05-31T11:36:23.468Z,14.33
2018-05-31T11:38:54.246Z,16.00
2018-05-31T11:41:24.796Z,14.33
2018-05-31T11:43:55.331Z,15.33
2018-05-31T11:46:25.856Z,14.67
2018-05-31T11:48:56.346Z,15.00
2018-05-31T11:51:26.951Z,15.67
2018-05-31T11:53:57.594Z,15.00
2018-05-31T11:56:28.306Z,15.00
2018-05-31T11:58:58.967Z,14.00
2018-05-31T12:01:29.530Z,16.00
2018-05-31T12:04:00.127Z,18.00
2018-05-31T12:06:30.799Z,14.33
2018-05-31T12:09:01.570Z,16.67
2018-05-31T12:11:31.930Z,16.67
2018-05-31T12:14:05.594Z,18.00
2018-05-31T12:16:37.669Z,17.33
2018-05-31T12:19:10.197Z,15.00
2018-05-31T12:21:42.615Z,15.67
2018-05-31T12:24:13.348Z,17.33
2018-05-31T12:26:46.147Z,15.00
2018-05-31T12:29:16.650Z,16.00
2018-05-31T12:31:49.245Z,18.33
2018-05-31T12:34:21.606Z,16.67
2018-05-31T12:36:52.226Z,16.67
2018-05-31T12:39:24.874Z,15.00
2018-05-31T12:41:55.500Z,14.00
2018-05-31T12:44:26.168Z,14.67
2018-05-31T12:46:59.051Z,15.00
2018-05-31T12:49:29.878Z,15.00
2018-05-31T12:52:03.606Z,14.33
2018-05-31T12:54:34.173Z,14.67
2018-05-31T12:57:06.986Z,13.67
2018-05-31T12:59:40.067Z,11.00
2018-05-31T13:02:12.817Z,10.00
2018-05-31T13:04:43.546Z,11.00
2018-05-31T13:07:14.826Z,9.67
2018-05-31T13:09:50.453Z,10.50
2018-05-31T13:12:22.823Z,10.00
2018-05-31T13:14:54.298Z,10.33
2018-05-31T13:17:26.073Z,11.00
2018-05-31T13:19:59.189Z,9.67
2018-05-31T13:22:30.788Z,10.33
2018-05-31T13:25:02.729Z,9.67
2018-05-31T13:27:34.190Z,9.33
2018-05-31T13:30:09.220Z,9.75
2018-05-31T13:32:41.445Z,10.00
2018-05-31T13:35:13.866Z,11.00
2018-05-31T13:37:45.474Z,10.00
2018-05-31T13:40:16.847Z,10.00
2018-05-31T13:42:48.350Z,9.00
2018-05-31T13:45:19.515Z,9.00
2018-05-31T13:47:50.662Z,9.00
2018-05-31T13:50:22.960Z,6.20
2018-05-31T13:52:55.203Z,5.00
2018-05-31T13:55:28.853Z,4.50
2018-05-31T13:58:02.886Z,4.00
2018-05-31T14:00:36.535Z,5.00
2018-05-31T14:03:10.340Z,5.17
2018-05-31T14:05:42.831Z,6.67
2018-05-31T14:08:14.842Z,6.33
2018-05-31T14:10:51.275Z,7.00
2018-05-31T14:13:23.766Z,7.00
2018-05-31T14:15:55.235Z,7.00
2018-05-31T14:18:26.690Z,7.33
2018-05-31T14:20:58.075Z,5.67
2018-05-31T14:23:30.770Z,6.75
2018-05-31T14:26:04.721Z,6.00
2018-05-31T14:28:37.979Z,7.00
2018-05-31T14:31:10.194Z,6.25
2018-05-31T14:33:42.930Z,6.80
2018-05-31T14:36:16.941Z,7.00
2018-05-31T14:38:51.193Z,6.71
2018-05-31T14:41:24.431Z,5.83
2018-05-31T14:43:57.891Z,6.00
2018-05-31T14:46:31.946Z,6.86
2018-05-31T14:49:05.433Z,5.33
2018-05-31T14:51:37.872Z,6.00
2018-05-31T14:54:11.280Z,6.00
2018-05-31T14:56:43.685Z,6.80
2018-05-31T14:59:16.259Z,5.60
2018-05-31T15:01:49.729Z,5.83
2018-05-31T15:04:24.037Z,8.00
2018-05-31T15:06:57.199Z,5.33
2018-05-31T15:09:32.369Z,5.71
2018-05-31T15:12:05.538Z,5.50
2018-05-31T15:14:39.115Z,5.00
2018-05-31T15:17:12.487Z,4.33
2018-05-31T15:19:46.094Z,6.50
2018-05-31T15:22:18.324Z,6.60
2018-05-31T15:24:50.531Z,7.00
2018-05-31T15:27:22.723Z,6.00
2018-05-31T15:29:55.162Z,6.67
2018-05-31T15:32:28.530Z,8.00
2018-05-31T15:35:00.639Z,6.33
2018-05-31T15:37:33.102Z,5.00
2018-05-31T15:40:05.382Z,6.60
2018-05-31T15:42:37.862Z,5.00
2018-05-31T15:45:10.127Z,6.40
2018-05-31T15:47:43.144Z,5.00
2018-05-31T15:50:17.057Z,6.00
2018-05-31T15:52:51.546Z,6.00
2018-05-31T15:55:24.766Z,5.00
2018-05-31T15:57:58.384Z,5.00
2018-05-31T16:00:31.557Z,6.00
2018-05-31T16:03:03.765Z,5.60
2018-05-31T16:05:38.106Z,6.00
2018-05-31T16:08:12.091Z,5.57
2018-05-31T16:10:44.346Z,5.00
2018-05-31T16:13:17.604Z,5.60
2018-05-31T16:15:48.932Z,5.33
2018-05-31T16:18:22.106Z,5.17
2018-05-31T16:20:55.774Z,5.00
2018-05-31T16:23:28.928Z,5.17
2018-05-31T16:26:02.166Z,5.17
2018-05-31T16:28:35.387Z,4.33
2018-05-31T16:31:10.590Z,5.71
2018-05-31T16:33:44.550Z,5.50
2018-05-31T16:36:17.157Z,6.00
2018-05-31T16:38:48.619Z,5.33
2018-05-31T16:41:20.135Z,6.33
2018-05-31T16:43:53.954Z,6.86
2018-05-31T16:46:27.602Z,4.83
2018-05-31T16:48:59.839Z,6.40
2018-05-31T16:51:33.032Z,5.33
2018-05-31T16:54:06.994Z,6.00
2018-05-31T16:56:40.134Z,5.00
2018-05-31T16:59:13.481Z,6.40
2018-05-31T17:01:45.770Z,6.20
2018-05-31T17:04:19.734Z,5.00
2018-05-31T17:06:52.366Z,5.40
2018-05-31T17:09:25.606Z,5.83
2018-05-31T17:11:58.011Z,7.00
2018-05-31T17:14:30.534Z,6.20
2018-05-31T17:17:04.436Z,5.71
2018-05-31T17:19:38.491Z,7.29
2018-05-31T17:22:10.802Z,7.40
2018-05-31T17:24:44.821Z,7.00
2018-05-31T17:27:17.759Z,8.60
2018-05-31T17:29:49.646Z,5.33
2018-05-31T17:32:21.950Z,5.00
2018-05-31T17:34:54.634Z,7.80
2018-05-31T17:37:28.576Z,6.57
2018-05-31T17:40:00.162Z,6.67
2018-05-31T17:42:32.540Z,7.80
2018-05-31T17:45:06.789Z,6.86
2018-05-31T17:47:39.066Z,7.00
2018-05-31T17:50:11.634Z,6.00
2018-05-31T17:52:44.715Z,8.00
2018-05-31T17:55:16.143Z,7.67
2018-05-31T17:57:47.701Z,8.00
2018-05-31T18:00:20.879Z,7.25
2018-05-31T18:02:52.313Z,6.67
2018-05-31T18:05:24.401Z,7.00
2018-05-31T18:07:55.989Z,8.00
2018-05-31T18:10:30.033Z,6.71
2018-05-31T18:13:02.899Z,7.80
2018-05-31T18:15:34.397Z,6.67
2018-05-31T18:18:07.218Z,8.00
2018-05-31T18:20:38.677Z,7.00
2018-05-31T18:23:10.333Z,10.00
2018-05-31T18:25:42.323Z,9.00
2018-05-31T18:28:14.805Z,8.00
2018-05-31T18:30:46.299Z,9.00
2018-05-31T18:33:17.734Z,8.33
2018-05-31T18:35:49.431Z,9.33
2018-05-31T18:38:23.188Z,9.50
2018-05-31T18:40:54.648Z,9.33
2018-05-31T18:43:26.178Z,10.00
2018-05-31T18:45:57.811Z,10.00
2018-05-31T18:48:29.422Z,10.00
2018-05-31T18:51:01.415Z,9.00
2018-05-31T18:53:33.068Z,9.67
2018-05-31T18:56:04.563Z,11.00
2018-05-31T18:58:36.330Z,10.33
2018-05-31T19:01:07.988Z,10.33
2018-05-31T19:03:39.786Z,10.33
2018-05-31T19:06:12.102Z,11.67
2018-05-31T19:08:44.275Z,10.00
2018-05-31T19:11:17.131Z,10.67
2018-05-31T19:14:04.926Z,9.00
2018-05-31T19:16:35.987Z,9.33
2018-05-31T19:19:11.434Z,10.33
2018-05-31T19:21:42.698Z,9.67
2018-05-31T19:24:18.129Z,10.67
2018-05-31T19:26:49.254Z,9.33
2018-05-31T19:29:25.469Z,10.33
2018-05-31T19:31:56.747Z,10.33
2018-05-31T19:34:29.323Z,9.67
2018-05-31T19:37:18.977Z,10.00
2018-05-31T19:39:50.473Z,11.33
2018-05-31T19:42:25.975Z,11.00
2018-05-31T19:44:57.475Z,11.00
2018-05-31T19:47:29.891Z,9.67
2018-05-31T19:50:00.831Z,11.67
2018-05-31T19:52:38.122Z,10.67
2018-05-31T19:55:09.997Z,11.00
2018-05-31T19:57:44.658Z,12.00
2018-05-31T20:00:22.595Z,13.00
2018-05-31T20:04:01.451Z,11.67
2018-05-31T20:06:33.630Z,12.00
2018-05-31T20:09:06.677Z,12.67
2018-05-31T20:11:37.199Z,12.67
2018-05-31T20:14:09.503Z,13.00
2018-05-31T20:16:39.875Z,12.67
2018-05-31T20:19:11.154Z,12.67
2018-05-31T20:21:42.507Z,12.67
2018-05-31T20:24:14.742Z,12.67
2018-05-31T20:26:46.085Z,11.00
2018-05-31T20:29:19.123Z,12.00
2018-05-31T20:31:50.688Z,12.33
2018-05-31T20:34:23.127Z,11.33
2018-05-31T20:36:54.898Z,12.00
2018-05-31T20:39:25.234Z,11.00
2018-05-31T20:41:56.371Z,10.67
2018-05-31T20:44:28.674Z,11.33
2018-05-31T20:46:59.229Z,9.67
2018-05-31T20:49:32.154Z,10.67
2018-05-31T20:52:04.742Z,10.00
2018-05-31T20:54:35.850Z,11.00
2018-05-31T20:57:08.187Z,10.33
2018-05-31T20:59:41.331Z,10.00
2018-05-31T21:02:12.842Z,11.00
2018-05-31T21:04:44.968Z,10.33
2018-05-31T21:07:16.903Z,11.00
2018-05-31T21:09:49.562Z,9.67
2018-05-31T21:12:21.470Z,10.33
2018-05-31T21:14:52.636Z,10.00
2018-05-31T21:17:24.069Z,10.00
2018-05-31T21:19:55.848Z,10.00
2018-05-31T21:22:27.487Z,9.00
2018-05-31T21:24:58.805Z,9.33
2018-05-31T21:27:29.916Z,11.00
2018-05-31T21:30:01.103Z,9.00
2018-05-31T21:32:33.991Z,9.33
2018-05-31T21:35:05.144Z,9.00
2018-05-31T21:37:36.484Z,9.00
2018-05-31T21:40:07.665Z,10.00
2018-05-31T21:42:39.147Z,10.00
2018-05-31T21:45:12.328Z,10.33
2018-05-31T21:47:44.497Z,10.67
2018-05-31T21:50:17.170Z,9.67
2018-05-31T21:52:48.658Z,11.67
2018-05-31T21:55:19.310Z,10.00
2018-05-31T21:57:52.256Z,10.33
2018-05-31T22:00:23.863Z,10.67
2018-05-31T22:02:55.001Z,10.33
2018-05-31T22:05:26.643Z,10.00
2018-05-31T22:07:57.902Z,10.00
2018-05-31T22:10:29.870Z,11.67
2018-05-31T22:13:00.741Z,11.00
2018-05-31T22:15:32.178Z,9.33
2018-05-31T22:18:02.591Z,10.00
2018-05-31T22:20:33.080Z,10.00
2018-05-31T22:23:04.287Z,9.33
2018-05-31T22:25:37.029Z,11.00
2018-05-31T22:28:09.141Z,11.00
2018-05-31T22:30:41.518Z,10.33
2018-05-31T22:33:11.722Z,10.00
2018-05-31T22:35:44.146Z,12.00
2018-05-31T22:38:15.978Z,10.67
2018-05-31T22:40:47.950Z,9.00
2018-05-31T22:43:20.575Z,10.33
2018-05-31T22:45:52.862Z,10.33
2018-05-31T22:48:25.580Z,10.67
2018-05-31T22:50:57.058Z,11.00
2018-05-31T22:53:29.291Z,11.00
2018-05-31T22:56:01.053Z,11.67
2018-05-31T22:58:31.298Z,12.00
2018-05-31T23:01:02.475Z,10.00
2018-05-31T23:03:34.874Z,11.67
2018-05-31T23:06:06.108Z,11.00
2018-05-31T23:08:40.794Z,11.00
2018-05-31T23:11:13.204Z,11.67
2018-05-31T23:13:46.038Z,10.67
2018-05-31T23:16:18.344Z,11.00
2018-05-31T23:18:48.986Z,10.00
2018-05-31T23:21:20.357Z,10.00
2018-05-31T23:23:53.644Z,10.67
2018-05-31T23:26:25.975Z,13.00
2018-05-31T23:28:56.575Z,13.00
2018-05-31T23:31:29.473Z,13.67
2018-05-31T23:34:00.006Z,11.67
2018-05-31T23:36:30.964Z,11.67
2018-05-31T23:39:02.002Z,12.67
2018-05-31T23:41:33.390Z,12.00
2018-05-31T23:44:04.967Z,11.33
2018-05-31T23:46:37.458Z,12.00
2018-05-31T23:49:08.093Z,12.33
2018-05-31T23:51:38.893Z,11.67
2018-05-31T23:54:09.558Z,12.33
2018-05-31T23:56:40.166Z,13.00
2018-05-31T23:59:12.606Z,13.00
